sensor_id;sensor_type;location;lat;lon;timestamp;P1;durP1;ratioP1;P2;durP2;ratioP2
10637;SDS011;47007;49.252;8.904;2022-09-28T00:01:57;0.47;;;0.20;;
10637;SDS011;47007;49.252;8.904;2022-09-28T00:04:24;0.32;;;0.17;;
10637;SDS011;47007;49.252;8.904;2022-09-28T00:06:51;0.90;;;0.20;;
10637;SDS011;47007;49.252;8.904;2022-09-28T00:09:17;2.22;;;0.20;;
10637;SDS011;47007;49.252;8.904;2022-09-28T00:11:44;0.70;;;0.20;;
10637;SDS011;47007;49.252;8.904;2022-09-28T00:14:12;0.40;;;0.30;;
10637;SDS011;47007;49.252;8.904;2022-09-28T00:16:40;0.22;;;0.20;;
10637;SDS011;47007;49.252;8.904;2022-09-28T00:19:09;1.00;;;0.20;;
10637;SDS011;47007;49.252;8.904;2022-09-28T00:21:38;0.40;;;0.20;;
10637;SDS011;47007;49.252;8.904;2022-09-28T00:24:06;0.90;;;0.20;;
10637;SDS011;47007;49.252;8.904;2022-09-28T00:29:23;0.45;;;0.20;;
10637;SDS011;47007;49.252;8.904;2022-09-28T00:31:52;0.35;;;0.30;;
10637;SDS011;47007;49.252;8.904;2022-09-28T00:34:25;1.52;;;0.20;;
10637;SDS011;47007;49.252;8.904;2022-09-28T00:36:52;0.28;;;0.10;;
10637;SDS011;47007;49.252;8.904;2022-09-28T00:39:19;0.52;;;0.20;;
10637;SDS011;47007;49.252;8.904;2022-09-28T00:41:46;0.85;;;0.20;;
10637;SDS011;47007;49.252;8.904;2022-09-28T00:46:48;0.45;;;0.20;;
10637;SDS011;47007;49.252;8.904;2022-09-28T00:49:18;0.73;;;0.20;;
10637;SDS011;47007;49.252;8.904;2022-09-28T00:51:47;0.55;;;0.20;;
10637;SDS011;47007;49.252;8.904;2022-09-28T00:54:14;0.30;;;0.20;;
10637;SDS011;47007;49.252;8.904;2022-09-28T00:56:42;0.40;;;0.10;;
10637;SDS011;47007;49.252;8.904;2022-09-28T00:59:12;0.32;;;0.20;;
10637;SDS011;47007;49.252;8.904;2022-09-28T01:01:40;0.55;;;0.20;;
10637;SDS011;47007;49.252;8.904;2022-09-28T01:04:07;0.10;;;0.10;;
10637;SDS011;47007;49.252;8.904;2022-09-28T01:06:34;1.40;;;0.20;;
10637;SDS011;47007;49.252;8.904;2022-09-28T01:09:03;0.82;;;0.20;;
10637;SDS011;47007;49.252;8.904;2022-09-28T01:11:34;0.22;;;0.10;;
10637;SDS011;47007;49.252;8.904;2022-09-28T01:14:05;0.30;;;0.10;;
10637;SDS011;47007;49.252;8.904;2022-09-28T01:16:40;0.75;;;0.25;;
10637;SDS011;47007;49.252;8.904;2022-09-28T01:28:04;1.20;;;0.17;;
10637;SDS011;47007;49.252;8.904;2022-09-28T01:31:12;1.10;;;0.20;;
10637;SDS011;47007;49.252;8.904;2022-09-28T01:33:43;0.82;;;0.10;;
10637;SDS011;47007;49.252;8.904;2022-09-28T01:36:16;0.40;;;0.10;;
10637;SDS011;47007;49.252;8.904;2022-09-28T01:38:52;0.35;;;0.10;;
10637;SDS011;47007;49.252;8.904;2022-09-28T01:41:22;0.13;;;0.08;;
10637;SDS011;47007;49.252;8.904;2022-09-28T01:43:54;0.50;;;0.10;;
10637;SDS011;47007;49.252;8.904;2022-09-28T01:46:24;0.10;;;0.10;;
10637;SDS011;47007;49.252;8.904;2022-09-28T01:48:56;0.10;;;0.10;;
10637;SDS011;47007;49.252;8.904;2022-09-28T01:51:28;2.20;;;0.10;;
10637;SDS011;47007;49.252;8.904;2022-09-28T01:53:58;1.25;;;0.20;;
10637;SDS011;47007;49.252;8.904;2022-09-28T01:56:33;2.05;;;0.20;;
10637;SDS011;47007;49.252;8.904;2022-09-28T02:01:42;0.17;;;0.10;;
10637;SDS011;47007;49.252;8.904;2022-09-28T02:04:15;1.13;;;0.20;;
10637;SDS011;47007;49.252;8.904;2022-09-28T02:06:51;0.47;;;0.30;;
10637;SDS011;47007;49.252;8.904;2022-09-28T02:09:22;0.55;;;0.10;;
10637;SDS011;47007;49.252;8.904;2022-09-28T02:12:00;1.40;;;0.13;;
10637;SDS011;47007;49.252;8.904;2022-09-28T02:14:32;2.53;;;0.10;;
10637;SDS011;47007;49.252;8.904;2022-09-28T02:17:01;0.93;;;0.10;;
10637;SDS011;47007;49.252;8.904;2022-09-28T02:19:30;0.80;;;0.10;;
10637;SDS011;47007;49.252;8.904;2022-09-28T02:24:38;0.20;;;0.10;;
10637;SDS011;47007;49.252;8.904;2022-09-28T02:30:15;1.27;;;0.10;;
10637;SDS011;47007;49.252;8.904;2022-09-28T02:32:45;1.65;;;0.20;;
10637;SDS011;47007;49.252;8.904;2022-09-28T02:35:15;0.32;;;0.20;;
10637;SDS011;47007;49.252;8.904;2022-09-28T02:37:44;1.35;;;0.30;;
10637;SDS011;47007;49.252;8.904;2022-09-28T02:40:14;0.20;;;0.10;;
10637;SDS011;47007;49.252;8.904;2022-09-28T02:43:03;1.77;;;0.20;;
10637;SDS011;47007;49.252;8.904;2022-09-28T02:45:55;1.65;;;0.20;;
10637;SDS011;47007;49.252;8.904;2022-09-28T02:55:41;1.05;;;0.30;;
10637;SDS011;47007;49.252;8.904;2022-09-28T03:00:43;1.15;;;0.20;;
10637;SDS011;47007;49.252;8.904;2022-09-28T03:03:23;0.40;;;0.20;;
10637;SDS011;47007;49.252;8.904;2022-09-28T03:06:10;1.75;;;0.38;;
10637;SDS011;47007;49.252;8.904;2022-09-28T03:08:53;1.20;;;0.30;;
10637;SDS011;47007;49.252;8.904;2022-09-28T03:11:35;0.35;;;0.20;;
10637;SDS011;47007;49.252;8.904;2022-09-28T03:14:06;1.33;;;0.30;;
10637;SDS011;47007;49.252;8.904;2022-09-28T03:16:42;0.55;;;0.30;;
10637;SDS011;47007;49.252;8.904;2022-09-28T03:19:13;0.52;;;0.25;;
10637;SDS011;47007;49.252;8.904;2022-09-28T03:21:42;0.63;;;0.20;;
10637;SDS011;47007;49.252;8.904;2022-09-28T03:24:09;1.17;;;0.30;;
10637;SDS011;47007;49.252;8.904;2022-09-28T03:26:39;2.20;;;0.30;;
10637;SDS011;47007;49.252;8.904;2022-09-28T03:29:07;0.35;;;0.20;;
10637;SDS011;47007;49.252;8.904;2022-09-28T03:31:33;1.05;;;0.30;;
10637;SDS011;47007;49.252;8.904;2022-09-28T03:34:01;0.60;;;0.20;;
10637;SDS011;47007;49.252;8.904;2022-09-28T03:36:28;0.50;;;0.10;;
10637;SDS011;47007;49.252;8.904;2022-09-28T03:38:55;0.80;;;0.60;;
10637;SDS011;47007;49.252;8.904;2022-09-28T03:41:23;0.80;;;0.17;;
10637;SDS011;47007;49.252;8.904;2022-09-28T03:43:50;1.60;;;0.13;;
10637;SDS011;47007;49.252;8.904;2022-09-28T03:46:17;1.13;;;0.30;;
10637;SDS011;47007;49.252;8.904;2022-09-28T03:48:47;0.50;;;0.20;;
10637;SDS011;47007;49.252;8.904;2022-09-28T03:51:14;0.47;;;0.10;;
10637;SDS011;47007;49.252;8.904;2022-09-28T03:53:41;0.68;;;0.20;;
10637;SDS011;47007;49.252;8.904;2022-09-28T03:56:10;3.10;;;0.30;;
10637;SDS011;47007;49.252;8.904;2022-09-28T03:58:39;0.65;;;0.20;;
10637;SDS011;47007;49.252;8.904;2022-09-28T04:01:08;1.17;;;0.20;;
10637;SDS011;47007;49.252;8.904;2022-09-28T04:03:44;0.20;;;0.20;;
10637;SDS011;47007;49.252;8.904;2022-09-28T04:06:12;0.77;;;0.20;;
10637;SDS011;47007;49.252;8.904;2022-09-28T04:08:39;0.65;;;0.20;;
10637;SDS011;47007;49.252;8.904;2022-09-28T04:11:07;1.50;;;0.40;;
10637;SDS011;47007;49.252;8.904;2022-09-28T04:13:34;1.65;;;0.30;;
10637;SDS011;47007;49.252;8.904;2022-09-28T04:16:00;2.35;;;0.52;;
10637;SDS011;47007;49.252;8.904;2022-09-28T04:18:31;1.00;;;0.20;;
10637;SDS011;47007;49.252;8.904;2022-09-28T04:21:21;2.35;;;0.30;;
10637;SDS011;47007;49.252;8.904;2022-09-28T04:24:00;1.30;;;0.40;;
10637;SDS011;47007;49.252;8.904;2022-09-28T04:26:27;0.38;;;0.20;;
10637;SDS011;47007;49.252;8.904;2022-09-28T04:28:55;1.40;;;0.30;;
10637;SDS011;47007;49.252;8.904;2022-09-28T04:31:46;1.85;;;0.52;;
10637;SDS011;47007;49.252;8.904;2022-09-28T04:34:19;1.95;;;0.30;;
10637;SDS011;47007;49.252;8.904;2022-09-28T04:36:48;0.93;;;0.30;;
10637;SDS011;47007;49.252;8.904;2022-09-28T04:39:15;1.70;;;0.40;;
10637;SDS011;47007;49.252;8.904;2022-09-28T04:41:49;1.25;;;0.30;;
10637;SDS011;47007;49.252;8.904;2022-09-28T04:44:16;1.63;;;0.40;;
10637;SDS011;47007;49.252;8.904;2022-09-28T04:46:45;0.70;;;0.30;;
10637;SDS011;47007;49.252;8.904;2022-09-28T04:49:26;1.38;;;0.35;;
10637;SDS011;47007;49.252;8.904;2022-09-28T04:51:56;2.08;;;0.40;;
10637;SDS011;47007;49.252;8.904;2022-09-28T04:54:22;1.67;;;0.30;;
10637;SDS011;47007;49.252;8.904;2022-09-28T04:56:49;0.68;;;0.30;;
10637;SDS011;47007;49.252;8.904;2022-09-28T04:59:18;1.02;;;0.30;;
10637;SDS011;47007;49.252;8.904;2022-09-28T05:01:44;1.50;;;0.22;;
10637;SDS011;47007;49.252;8.904;2022-09-28T05:04:31;1.90;;;0.45;;
10637;SDS011;47007;49.252;8.904;2022-09-28T05:07:24;0.80;;;0.30;;
10637;SDS011;47007;49.252;8.904;2022-09-28T05:09:52;2.85;;;0.40;;
10637;SDS011;47007;49.252;8.904;2022-09-28T05:12:20;0.50;;;0.50;;
10637;SDS011;47007;49.252;8.904;2022-09-28T05:14:47;1.50;;;0.45;;
10637;SDS011;47007;49.252;8.904;2022-09-28T05:17:14;2.65;;;0.40;;
10637;SDS011;47007;49.252;8.904;2022-09-28T05:19:59;1.48;;;0.28;;
10637;SDS011;47007;49.252;8.904;2022-09-28T05:22:28;0.85;;;0.35;;
10637;SDS011;47007;49.252;8.904;2022-09-28T05:24:54;1.33;;;0.40;;
10637;SDS011;47007;49.252;8.904;2022-09-28T05:27:22;1.33;;;0.30;;
10637;SDS011;47007;49.252;8.904;2022-09-28T05:29:58;0.77;;;0.30;;
10637;SDS011;47007;49.252;8.904;2022-09-28T05:32:57;1.05;;;0.40;;
10637;SDS011;47007;49.252;8.904;2022-09-28T05:35:27;1.55;;;0.60;;
10637;SDS011;47007;49.252;8.904;2022-09-28T05:37:55;1.67;;;0.90;;
10637;SDS011;47007;49.252;8.904;2022-09-28T05:40:22;0.85;;;0.45;;
10637;SDS011;47007;49.252;8.904;2022-09-28T05:42:49;0.55;;;0.30;;
10637;SDS011;47007;49.252;8.904;2022-09-28T05:45:15;1.45;;;0.50;;
10637;SDS011;47007;49.252;8.904;2022-09-28T05:47:43;1.92;;;0.40;;
10637;SDS011;47007;49.252;8.904;2022-09-28T05:50:14;0.88;;;0.50;;
10637;SDS011;47007;49.252;8.904;2022-09-28T05:52:41;1.00;;;0.38;;
10637;SDS011;47007;49.252;8.904;2022-09-28T05:55:09;1.00;;;0.40;;
10637;SDS011;47007;49.252;8.904;2022-09-28T05:57:36;0.82;;;0.40;;
10637;SDS011;47007;49.252;8.904;2022-09-28T06:00:04;0.88;;;0.50;;
10637;SDS011;47007;49.252;8.904;2022-09-28T06:02:43;1.38;;;0.50;;
10637;SDS011;47007;49.252;8.904;2022-09-28T06:05:11;1.58;;;0.65;;
10637;SDS011;47007;49.252;8.904;2022-09-28T06:07:38;2.22;;;1.50;;
10637;SDS011;47007;49.252;8.904;2022-09-28T06:10:05;1.15;;;0.70;;
10637;SDS011;47007;49.252;8.904;2022-09-28T06:12:40;0.82;;;0.60;;
10637;SDS011;47007;49.252;8.904;2022-09-28T06:15:13;1.40;;;0.73;;
10637;SDS011;47007;49.252;8.904;2022-09-28T06:17:41;0.95;;;0.57;;
10637;SDS011;47007;49.252;8.904;2022-09-28T06:20:28;1.35;;;0.70;;
10637;SDS011;47007;49.252;8.904;2022-09-28T06:23:11;1.27;;;0.50;;
10637;SDS011;47007;49.252;8.904;2022-09-28T06:25:38;1.52;;;0.60;;
10637;SDS011;47007;49.252;8.904;2022-09-28T06:28:06;2.80;;;0.77;;
10637;SDS011;47007;49.252;8.904;2022-09-28T06:30:36;2.33;;;0.50;;
10637;SDS011;47007;49.252;8.904;2022-09-28T06:33:07;1.30;;;0.80;;
10637;SDS011;47007;49.252;8.904;2022-09-28T06:35:37;2.45;;;0.70;;
10637;SDS011;47007;49.252;8.904;2022-09-28T06:38:05;1.17;;;0.70;;
10637;SDS011;47007;49.252;8.904;2022-09-28T06:40:32;1.60;;;0.63;;
10637;SDS011;47007;49.252;8.904;2022-09-28T06:43:05;2.80;;;0.60;;
10637;SDS011;47007;49.252;8.904;2022-09-28T06:45:56;2.15;;;1.10;;
10637;SDS011;47007;49.252;8.904;2022-09-28T06:48:41;2.15;;;1.50;;
10637;SDS011;47007;49.252;8.904;2022-09-28T06:51:17;1.65;;;0.77;;
10637;SDS011;47007;49.252;8.904;2022-09-28T06:54:07;2.70;;;1.80;;
10637;SDS011;47007;49.252;8.904;2022-09-28T06:56:57;1.92;;;1.10;;
10637;SDS011;47007;49.252;8.904;2022-09-28T06:59:23;1.35;;;0.90;;
10637;SDS011;47007;49.252;8.904;2022-09-28T07:01:50;3.10;;;1.15;;
10637;SDS011;47007;49.252;8.904;2022-09-28T07:04:40;1.63;;;1.15;;
10637;SDS011;47007;49.252;8.904;2022-09-28T07:07:29;1.60;;;0.82;;
10637;SDS011;47007;49.252;8.904;2022-09-28T07:10:10;1.38;;;0.75;;
10637;SDS011;47007;49.252;8.904;2022-09-28T07:13:07;1.10;;;0.75;;
10637;SDS011;47007;49.252;8.904;2022-09-28T07:15:52;3.72;;;1.13;;
10637;SDS011;47007;49.252;8.904;2022-09-28T07:18:22;2.05;;;0.90;;
10637;SDS011;47007;49.252;8.904;2022-09-28T07:20:50;2.65;;;1.30;;
10637;SDS011;47007;49.252;8.904;2022-09-28T07:23:20;2.47;;;1.10;;
10637;SDS011;47007;49.252;8.904;2022-09-28T07:26:05;2.83;;;1.10;;
10637;SDS011;47007;49.252;8.904;2022-09-28T07:29:01;2.67;;;1.08;;
10637;SDS011;47007;49.252;8.904;2022-09-28T07:31:42;1.92;;;1.25;;
10637;SDS011;47007;49.252;8.904;2022-09-28T07:34:36;2.33;;;1.40;;
10637;SDS011;47007;49.252;8.904;2022-09-28T07:37:13;3.40;;;1.33;;
10637;SDS011;47007;49.252;8.904;2022-09-28T07:39:41;3.55;;;1.30;;
10637;SDS011;47007;49.252;8.904;2022-09-28T07:42:30;2.38;;;1.10;;
10637;SDS011;47007;49.252;8.904;2022-09-28T07:44:57;2.88;;;1.45;;
10637;SDS011;47007;49.252;8.904;2022-09-28T07:47:24;3.47;;;1.10;;
10637;SDS011;47007;49.252;8.904;2022-09-28T07:50:29;4.07;;;1.40;;
10637;SDS011;47007;49.252;8.904;2022-09-28T07:53:07;2.25;;;1.20;;
10637;SDS011;47007;49.252;8.904;2022-09-28T07:56:03;3.30;;;1.30;;
10637;SDS011;47007;49.252;8.904;2022-09-28T07:58:53;3.45;;;1.30;;
10637;SDS011;47007;49.252;8.904;2022-09-28T08:01:38;2.45;;;1.00;;
10637;SDS011;47007;49.252;8.904;2022-09-28T08:04:07;1.83;;;0.80;;
10637;SDS011;47007;49.252;8.904;2022-09-28T08:06:35;2.70;;;1.10;;
10637;SDS011;47007;49.252;8.904;2022-09-28T08:09:03;2.85;;;1.33;;
10637;SDS011;47007;49.252;8.904;2022-09-28T08:11:55;2.28;;;1.10;;
10637;SDS011;47007;49.252;8.904;2022-09-28T08:14:40;3.05;;;1.30;;
10637;SDS011;47007;49.252;8.904;2022-09-28T08:17:27;1.58;;;1.20;;
10637;SDS011;47007;49.252;8.904;2022-09-28T08:19:56;5.80;;;1.10;;
10637;SDS011;47007;49.252;8.904;2022-09-28T08:22:41;2.47;;;0.90;;
10637;SDS011;47007;49.252;8.904;2022-09-28T08:25:09;2.80;;;0.75;;
10637;SDS011;47007;49.252;8.904;2022-09-28T08:27:36;2.72;;;1.00;;
10637;SDS011;47007;49.252;8.904;2022-09-28T08:30:04;2.25;;;0.90;;
10637;SDS011;47007;49.252;8.904;2022-09-28T08:32:45;4.00;;;1.15;;
10637;SDS011;47007;49.252;8.904;2022-09-28T08:35:35;3.38;;;1.08;;
10637;SDS011;47007;49.252;8.904;2022-09-28T08:38:24;3.20;;;1.23;;
10637;SDS011;47007;49.252;8.904;2022-09-28T08:47:13;1.70;;;0.60;;
10637;SDS011;47007;49.252;8.904;2022-09-28T08:50:30;1.85;;;0.80;;
10637;SDS011;47007;49.252;8.904;2022-09-28T08:56:23;2.10;;;0.40;;
10637;SDS011;47007;49.252;8.904;2022-09-28T08:58:55;1.48;;;0.50;;
10637;SDS011;47007;49.252;8.904;2022-09-28T09:01:31;2.88;;;0.88;;
10637;SDS011;47007;49.252;8.904;2022-09-28T09:04:05;2.13;;;0.75;;
10637;SDS011;47007;49.252;8.904;2022-09-28T09:07:27;3.75;;;0.93;;
10637;SDS011;47007;49.252;8.904;2022-09-28T09:10:24;1.45;;;0.73;;
10637;SDS011;47007;49.252;8.904;2022-09-28T09:16:05;1.55;;;0.65;;
10637;SDS011;47007;49.252;8.904;2022-09-28T09:24:24;1.98;;;0.68;;
10637;SDS011;47007;49.252;8.904;2022-09-28T09:27:03;1.38;;;0.60;;
10637;SDS011;47007;49.252;8.904;2022-09-28T09:41:41;2.08;;;1.02;;
10637;SDS011;47007;49.252;8.904;2022-09-28T09:47:38;2.10;;;0.60;;
10637;SDS011;47007;49.252;8.904;2022-09-28T09:50:36;4.13;;;2.90;;
10637;SDS011;47007;49.252;8.904;2022-09-28T09:53:17;4.22;;;1.10;;
10637;SDS011;47007;49.252;8.904;2022-09-28T09:55:50;2.65;;;0.57;;
10637;SDS011;47007;49.252;8.904;2022-09-28T09:58:37;1.60;;;0.70;;
10637;SDS011;47007;49.252;8.904;2022-09-28T10:01:32;2.58;;;0.57;;
10637;SDS011;47007;49.252;8.904;2022-09-28T10:04:24;1.92;;;0.65;;
10637;SDS011;47007;49.252;8.904;2022-09-28T10:07:00;2.60;;;0.70;;
10637;SDS011;47007;49.252;8.904;2022-09-28T10:09:33;1.90;;;0.57;;
10637;SDS011;47007;49.252;8.904;2022-09-28T10:12:18;1.80;;;0.55;;
10637;SDS011;47007;49.252;8.904;2022-09-28T10:14:47;1.58;;;0.63;;
10637;SDS011;47007;49.252;8.904;2022-09-28T10:17:16;1.40;;;0.70;;
10637;SDS011;47007;49.252;8.904;2022-09-28T10:20:20;2.75;;;0.77;;
10637;SDS011;47007;49.252;8.904;2022-09-28T10:23:11;1.42;;;0.50;;
10637;SDS011;47007;49.252;8.904;2022-09-28T10:25:42;3.20;;;0.70;;
10637;SDS011;47007;49.252;8.904;2022-09-28T10:28:13;0.75;;;0.57;;
10637;SDS011;47007;49.252;8.904;2022-09-28T10:30:47;1.00;;;0.50;;
10637;SDS011;47007;49.252;8.904;2022-09-28T10:33:30;1.23;;;0.40;;
10637;SDS011;47007;49.252;8.904;2022-09-28T10:35:59;1.83;;;0.60;;
10637;SDS011;47007;49.252;8.904;2022-09-28T10:38:27;1.88;;;0.50;;
10637;SDS011;47007;49.252;8.904;2022-09-28T10:41:08;2.08;;;0.40;;
10637;SDS011;47007;49.252;8.904;2022-09-28T10:43:57;2.15;;;0.50;;
10637;SDS011;47007;49.252;8.904;2022-09-28T10:46:55;3.80;;;0.60;;
10637;SDS011;47007;49.252;8.904;2022-09-28T10:49:29;1.27;;;0.45;;
10637;SDS011;47007;49.252;8.904;2022-09-28T10:52:28;1.58;;;0.40;;
10637;SDS011;47007;49.252;8.904;2022-09-28T10:55:30;2.38;;;0.60;;
10637;SDS011;47007;49.252;8.904;2022-09-28T10:57:59;1.30;;;0.60;;
10637;SDS011;47007;49.252;8.904;2022-09-28T11:00:39;2.88;;;0.45;;
10637;SDS011;47007;49.252;8.904;2022-09-28T11:03:22;0.90;;;0.40;;
10637;SDS011;47007;49.252;8.904;2022-09-28T11:06:00;1.25;;;0.40;;
10637;SDS011;47007;49.252;8.904;2022-09-28T11:08:32;5.90;;;0.90;;
10637;SDS011;47007;49.252;8.904;2022-09-28T11:11:11;2.03;;;0.60;;
10637;SDS011;47007;49.252;8.904;2022-09-28T11:13:41;3.53;;;0.60;;
10637;SDS011;47007;49.252;8.904;2022-09-28T11:16:20;0.80;;;0.40;;
10637;SDS011;47007;49.252;8.904;2022-09-28T11:18:56;1.77;;;0.40;;
10637;SDS011;47007;49.252;8.904;2022-09-28T11:21:30;1.80;;;0.60;;
10637;SDS011;47007;49.252;8.904;2022-09-28T11:26:45;0.95;;;0.50;;
10637;SDS011;47007;49.252;8.904;2022-09-28T11:29:25;1.30;;;0.50;;
10637;SDS011;47007;49.252;8.904;2022-09-28T11:32:19;1.00;;;0.50;;
10637;SDS011;47007;49.252;8.904;2022-09-28T11:35:24;2.50;;;0.63;;
10637;SDS011;47007;49.252;8.904;2022-09-28T11:43:55;2.35;;;0.55;;
10637;SDS011;47007;49.252;8.904;2022-09-28T11:46:48;4.68;;;0.77;;
10637;SDS011;47007;49.252;8.904;2022-09-28T11:49:48;3.85;;;0.98;;
10637;SDS011;47007;49.252;8.904;2022-09-28T11:52:22;2.20;;;0.60;;
10637;SDS011;47007;49.252;8.904;2022-09-28T11:54:55;2.25;;;0.70;;
10637;SDS011;47007;49.252;8.904;2022-09-28T11:57:27;2.13;;;0.70;;
10637;SDS011;47007;49.252;8.904;2022-09-28T12:00:04;1.80;;;0.50;;
10637;SDS011;47007;49.252;8.904;2022-09-28T12:02:44;2.70;;;0.57;;
10637;SDS011;47007;49.252;8.904;2022-09-28T12:05:23;0.63;;;0.63;;
10637;SDS011;47007;49.252;8.904;2022-09-28T12:07:57;0.95;;;0.63;;
10637;SDS011;47007;49.252;8.904;2022-09-28T12:13:59;5.03;;;1.45;;
10637;SDS011;47007;49.252;8.904;2022-09-28T12:16:40;1.33;;;0.80;;
10637;SDS011;47007;49.252;8.904;2022-09-28T12:19:46;3.08;;;0.70;;
10637;SDS011;47007;49.252;8.904;2022-09-28T12:22:18;2.03;;;0.73;;
10637;SDS011;47007;49.252;8.904;2022-09-28T12:24:51;1.63;;;0.43;;
10637;SDS011;47007;49.252;8.904;2022-09-28T12:27:29;1.20;;;0.70;;
10637;SDS011;47007;49.252;8.904;2022-09-28T12:30:10;1.52;;;0.43;;
10637;SDS011;47007;49.252;8.904;2022-09-28T12:32:50;0.73;;;0.65;;
10637;SDS011;47007;49.252;8.904;2022-09-28T12:50:01;1.52;;;0.50;;
10637;SDS011;47007;49.252;8.904;2022-09-28T12:56:02;1.08;;;0.35;;
10637;SDS011;47007;49.252;8.904;2022-09-28T13:04:07;1.65;;;0.40;;
10637;SDS011;47007;49.252;8.904;2022-09-28T13:06:44;0.75;;;0.68;;
10637;SDS011;47007;49.252;8.904;2022-09-28T13:19:58;2.05;;;1.05;;
10637;SDS011;47007;49.252;8.904;2022-09-28T13:25:16;0.75;;;0.40;;
10637;SDS011;47007;49.252;8.904;2022-09-28T13:28:08;1.98;;;0.70;;
10637;SDS011;47007;49.252;8.904;2022-09-28T13:30:33;2.63;;;1.52;;
10637;SDS011;47007;49.252;8.904;2022-09-28T13:33:04;2.08;;;0.60;;
10637;SDS011;47007;49.252;8.904;2022-09-28T13:35:39;1.48;;;0.50;;
10637;SDS011;47007;49.252;8.904;2022-09-28T13:54:59;1.83;;;0.60;;
10637;SDS011;47007;49.252;8.904;2022-09-28T13:57:40;1.25;;;0.32;;
10637;SDS011;47007;49.252;8.904;2022-09-28T14:08:31;1.25;;;0.60;;
10637;SDS011;47007;49.252;8.904;2022-09-28T14:16:29;1.98;;;0.40;;
10637;SDS011;47007;49.252;8.904;2022-09-28T14:19:17;3.13;;;0.63;;
10637;SDS011;47007;49.252;8.904;2022-09-28T14:32:38;1.75;;;0.65;;
10637;SDS011;47007;49.252;8.904;2022-09-28T14:35:19;1.15;;;0.50;;
10637;SDS011;47007;49.252;8.904;2022-09-28T14:38:05;1.48;;;0.88;;
10637;SDS011;47007;49.252;8.904;2022-09-28T14:41:04;0.55;;;0.45;;
10637;SDS011;47007;49.252;8.904;2022-09-28T14:43:55;2.90;;;0.93;;
10637;SDS011;47007;49.252;8.904;2022-09-28T14:46:34;1.67;;;1.05;;
10637;SDS011;47007;49.252;8.904;2022-09-28T14:54:24;1.63;;;0.60;;
10637;SDS011;47007;49.252;8.904;2022-09-28T15:01:58;1.58;;;0.60;;
10637;SDS011;47007;49.252;8.904;2022-09-28T15:04:31;1.83;;;0.55;;
10637;SDS011;47007;49.252;8.904;2022-09-28T15:07:02;3.30;;;0.57;;
10637;SDS011;47007;49.252;8.904;2022-09-28T15:09:29;1.65;;;0.80;;
10637;SDS011;47007;49.252;8.904;2022-09-28T15:11:59;1.80;;;0.68;;
10637;SDS011;47007;49.252;8.904;2022-09-28T15:14:33;1.70;;;0.60;;
10637;SDS011;47007;49.252;8.904;2022-09-28T15:17:10;2.17;;;0.73;;
10637;SDS011;47007;49.252;8.904;2022-09-28T15:22:13;2.25;;;0.63;;
10637;SDS011;47007;49.252;8.904;2022-09-28T15:24:44;2.33;;;0.75;;
10637;SDS011;47007;49.252;8.904;2022-09-28T15:27:18;3.55;;;0.90;;
10637;SDS011;47007;49.252;8.904;2022-09-28T15:29:55;2.30;;;0.80;;
10637;SDS011;47007;49.252;8.904;2022-09-28T15:32:27;1.48;;;0.60;;
10637;SDS011;47007;49.252;8.904;2022-09-28T15:34:55;2.95;;;0.60;;
10637;SDS011;47007;49.252;8.904;2022-09-28T15:37:23;1.55;;;0.52;;
10637;SDS011;47007;49.252;8.904;2022-09-28T15:39:54;1.75;;;0.50;;
10637;SDS011;47007;49.252;8.904;2022-09-28T15:42:23;1.20;;;0.43;;
10637;SDS011;47007;49.252;8.904;2022-09-28T15:44:58;2.17;;;0.70;;
10637;SDS011;47007;49.252;8.904;2022-09-28T15:47:28;2.15;;;0.60;;
10637;SDS011;47007;49.252;8.904;2022-09-28T15:50:00;1.98;;;0.85;;
10637;SDS011;47007;49.252;8.904;2022-09-28T15:55:02;2.00;;;0.43;;
10637;SDS011;47007;49.252;8.904;2022-09-28T15:57:33;3.15;;;0.60;;
10637;SDS011;47007;49.252;8.904;2022-09-28T16:05:43;1.80;;;0.90;;
10637;SDS011;47007;49.252;8.904;2022-09-28T16:08:36;2.03;;;0.70;;
10637;SDS011;47007;49.252;8.904;2022-09-28T16:11:12;1.98;;;0.77;;
10637;SDS011;47007;49.252;8.904;2022-09-28T16:16:46;3.45;;;0.90;;
10637;SDS011;47007;49.252;8.904;2022-09-28T16:19:24;2.28;;;0.82;;
10637;SDS011;47007;49.252;8.904;2022-09-28T16:21:55;2.95;;;1.63;;
10637;SDS011;47007;49.252;8.904;2022-09-28T16:24:32;2.25;;;0.65;;
10637;SDS011;47007;49.252;8.904;2022-09-28T16:27:02;0.63;;;0.40;;
10637;SDS011;47007;49.252;8.904;2022-09-28T16:29:33;3.28;;;0.60;;
10637;SDS011;47007;49.252;8.904;2022-09-28T16:37:39;2.13;;;0.68;;
10637;SDS011;47007;49.252;8.904;2022-09-28T16:40:08;0.95;;;0.65;;
10637;SDS011;47007;49.252;8.904;2022-09-28T16:42:36;1.92;;;1.13;;
10637;SDS011;47007;49.252;8.904;2022-09-28T16:45:04;1.17;;;0.68;;
10637;SDS011;47007;49.252;8.904;2022-09-28T16:47:32;2.83;;;0.50;;
10637;SDS011;47007;49.252;8.904;2022-09-28T16:50:00;0.68;;;0.65;;
10637;SDS011;47007;49.252;8.904;2022-09-28T16:52:29;3.42;;;1.42;;
10637;SDS011;47007;49.252;8.904;2022-09-28T16:55:14;3.90;;;0.77;;
10637;SDS011;47007;49.252;8.904;2022-09-28T16:58:00;0.88;;;0.50;;
10637;SDS011;47007;49.252;8.904;2022-09-28T17:00:29;1.23;;;0.43;;
10637;SDS011;47007;49.252;8.904;2022-09-28T17:02:57;2.55;;;0.70;;
10637;SDS011;47007;49.252;8.904;2022-09-28T17:05:24;1.15;;;0.55;;
10637;SDS011;47007;49.252;8.904;2022-09-28T17:08:02;1.23;;;0.63;;
10637;SDS011;47007;49.252;8.904;2022-09-28T17:10:34;2.40;;;0.68;;
10637;SDS011;47007;49.252;8.904;2022-09-28T17:13:24;3.35;;;1.20;;
10637;SDS011;47007;49.252;8.904;2022-09-28T17:15:59;2.03;;;0.80;;
10637;SDS011;47007;49.252;8.904;2022-09-28T17:18:34;1.08;;;0.52;;
10637;SDS011;47007;49.252;8.904;2022-09-28T17:21:11;0.70;;;0.70;;
10637;SDS011;47007;49.252;8.904;2022-09-28T17:23:41;1.92;;;0.73;;
10637;SDS011;47007;49.252;8.904;2022-09-28T17:26:25;2.60;;;0.70;;
10637;SDS011;47007;49.252;8.904;2022-09-28T17:28:56;1.80;;;0.70;;
10637;SDS011;47007;49.252;8.904;2022-09-28T17:31:25;1.52;;;0.60;;
10637;SDS011;47007;49.252;8.904;2022-09-28T17:33:51;1.35;;;0.70;;
10637;SDS011;47007;49.252;8.904;2022-09-28T17:36:20;1.27;;;0.50;;
10637;SDS011;47007;49.252;8.904;2022-09-28T17:38:48;2.00;;;1.00;;
10637;SDS011;47007;49.252;8.904;2022-09-28T17:41:17;1.42;;;0.93;;
10637;SDS011;47007;49.252;8.904;2022-09-28T17:43:46;2.85;;;1.45;;
10637;SDS011;47007;49.252;8.904;2022-09-28T17:48:40;9.52;;;5.57;;
10637;SDS011;47007;49.252;8.904;2022-09-28T17:51:12;23.42;;;14.98;;
10637;SDS011;47007;49.252;8.904;2022-09-28T17:53:40;21.48;;;16.25;;
10637;SDS011;47007;49.252;8.904;2022-09-28T17:56:07;19.38;;;15.70;;
10637;SDS011;47007;49.252;8.904;2022-09-28T17:58:35;37.30;;;24.95;;
10637;SDS011;47007;49.252;8.904;2022-09-28T18:01:02;8.82;;;6.82;;
10637;SDS011;47007;49.252;8.904;2022-09-28T18:03:28;3.88;;;3.35;;
10637;SDS011;47007;49.252;8.904;2022-09-28T18:06:00;11.88;;;8.25;;
10637;SDS011;47007;49.252;8.904;2022-09-28T18:08:29;3.58;;;3.28;;
10637;SDS011;47007;49.252;8.904;2022-09-28T18:10:56;2.75;;;1.77;;
10637;SDS011;47007;49.252;8.904;2022-09-28T18:13:24;1.60;;;1.45;;
10637;SDS011;47007;49.252;8.904;2022-09-28T18:15:53;2.13;;;1.23;;
10637;SDS011;47007;49.252;8.904;2022-09-28T18:18:21;3.40;;;2.30;;
10637;SDS011;47007;49.252;8.904;2022-09-28T18:20:49;2.03;;;1.30;;
10637;SDS011;47007;49.252;8.904;2022-09-28T18:23:16;1.70;;;1.30;;
10637;SDS011;47007;49.252;8.904;2022-09-28T18:25:44;3.78;;;3.40;;
10637;SDS011;47007;49.252;8.904;2022-09-28T18:28:12;3.30;;;2.45;;
10637;SDS011;47007;49.252;8.904;2022-09-28T18:30:40;4.80;;;2.20;;
10637;SDS011;47007;49.252;8.904;2022-09-28T18:33:09;1.00;;;0.80;;
10637;SDS011;47007;49.252;8.904;2022-09-28T18:35:38;2.13;;;0.90;;
10637;SDS011;47007;49.252;8.904;2022-09-28T18:38:06;1.17;;;0.82;;
10637;SDS011;47007;49.252;8.904;2022-09-28T18:40:33;1.15;;;0.85;;
10637;SDS011;47007;49.252;8.904;2022-09-28T18:43:01;1.17;;;0.95;;